createdAt,value
2018-10-18T00:01:06.300Z,52.47
2018-10-18T00:03:34.205Z,53.97
2018-10-18T00:06:01.684Z,51.03
2018-10-18T00:08:29.144Z,51.30
2018-10-18T00:10:56.644Z,52.63
2018-10-18T00:13:24.138Z,52.07
2018-10-18T00:15:51.636Z,55.83
2018-10-18T00:18:19.131Z,58.80
2018-10-18T00:20:46.642Z,59.43
2018-10-18T00:23:14.141Z,57.93
2018-10-18T00:25:41.631Z,59.70
2018-10-18T00:28:09.118Z,61.80
2018-10-18T00:30:36.615Z,59.50
2018-10-18T00:33:04.438Z,56.10
2018-10-18T00:35:31.930Z,55.10
2018-10-18T00:37:59.471Z,53.70
2018-10-18T00:40:26.914Z,53.63
2018-10-18T00:42:54.414Z,51.83
2018-10-18T00:45:21.956Z,55.07
2018-10-18T00:47:49.490Z,56.30
2018-10-18T00:50:17.042Z,57.47
2018-10-18T00:52:44.534Z,54.97
2018-10-18T00:55:12.063Z,58.33
2018-10-18T00:57:40.418Z,61.00
2018-10-18T01:00:08.846Z,62.30
2018-10-18T01:02:36.349Z,66.83
2018-10-18T01:05:03.892Z,67.00
2018-10-18T01:07:31.447Z,63.63
2018-10-18T01:09:58.950Z,60.47
2018-10-18T01:12:26.615Z,60.33
2018-10-18T01:14:54.012Z,62.47
2018-10-18T01:17:21.547Z,62.53
2018-10-18T01:19:49.054Z,58.13
2018-10-18T01:22:16.576Z,59.87
2018-10-18T01:24:44.096Z,61.33
2018-10-18T01:27:11.608Z,56.73
2018-10-18T01:29:39.170Z,54.10
2018-10-18T01:32:06.735Z,58.00
2018-10-18T01:34:34.199Z,58.23
2018-10-18T01:37:01.734Z,59.23
2018-10-18T01:39:29.259Z,61.53
2018-10-18T01:41:56.816Z,59.97
2018-10-18T01:44:24.323Z,61.97
2018-10-18T01:46:51.887Z,61.13
2018-10-18T01:49:19.383Z,62.23
2018-10-18T01:51:46.915Z,59.80
2018-10-18T01:54:14.492Z,65.10
2018-10-18T01:56:41.947Z,65.07
2018-10-18T01:59:09.442Z,68.73
2018-10-18T02:01:36.973Z,64.60
2018-10-18T02:04:05.186Z,66.70
2018-10-18T02:06:32.724Z,69.03
2018-10-18T02:09:00.255Z,74.87
2018-10-18T02:11:27.765Z,67.80
2018-10-18T02:13:55.285Z,68.80
2018-10-18T02:16:22.786Z,62.37
2018-10-18T02:18:50.315Z,62.63
2018-10-18T02:21:17.810Z,63.33
2018-10-18T02:23:45.322Z,64.13
2018-10-18T02:26:12.813Z,62.30
2018-10-18T02:28:40.330Z,63.87
2018-10-18T02:31:07.823Z,66.17
2018-10-18T02:33:35.338Z,65.57
2018-10-18T02:36:02.940Z,63.10
2018-10-18T02:38:30.456Z,66.37
2018-10-18T02:40:57.962Z,65.50
2018-10-18T02:43:25.478Z,62.47
2018-10-18T02:45:52.975Z,64.37
2018-10-18T02:48:20.626Z,65.57
2018-10-18T02:50:48.032Z,67.07
2018-10-18T02:53:15.555Z,67.20
2018-10-18T02:55:43.058Z,70.27
2018-10-18T02:58:10.574Z,69.27
2018-10-18T03:00:38.082Z,68.20
2018-10-18T03:03:05.598Z,65.17
2018-10-18T03:05:33.116Z,69.13
2018-10-18T03:08:00.847Z,72.37
2018-10-18T03:10:28.367Z,66.20
2018-10-18T03:12:55.869Z,69.43
2018-10-18T03:15:23.391Z,69.50
2018-10-18T03:17:50.914Z,67.63
2018-10-18T03:20:18.425Z,68.67
2018-10-18T03:22:45.934Z,65.83
2018-10-18T03:25:13.437Z,67.90
2018-10-18T03:27:41.349Z,67.80
2018-10-18T03:30:09.176Z,71.63
2018-10-18T03:32:36.569Z,66.43
2018-10-18T03:35:05.336Z,69.07
2018-10-18T03:37:32.870Z,74.23
2018-10-18T03:40:00.387Z,71.27
2018-10-18T03:42:27.904Z,74.43
2018-10-18T03:44:55.410Z,71.07
2018-10-18T03:47:22.987Z,66.50
2018-10-18T03:49:50.487Z,62.37
2018-10-18T03:52:17.978Z,65.40
2018-10-18T03:54:45.477Z,66.70
2018-10-18T03:57:12.958Z,71.70
2018-10-18T03:59:40.580Z,68.30
2018-10-18T04:02:07.942Z,69.83
2018-10-18T04:04:35.435Z,76.63
2018-10-18T04:07:02.964Z,75.50
2018-10-18T04:09:30.464Z,76.63
2018-10-18T04:11:57.989Z,70.37
2018-10-18T04:14:25.906Z,69.27
2018-10-18T04:16:53.410Z,73.93
2018-10-18T04:19:20.901Z,71.47
2018-10-18T04:21:48.394Z,68.20
2018-10-18T04:24:15.971Z,67.60
2018-10-18T04:26:43.386Z,67.80
2018-10-18T04:29:10.887Z,71.70
2018-10-18T04:31:38.407Z,68.93
2018-10-18T04:34:05.907Z,71.47
2018-10-18T04:36:33.403Z,72.20
2018-10-18T04:39:00.897Z,70.33
2018-10-18T04:41:28.686Z,77.03
2018-10-18T04:43:56.189Z,80.60
2018-10-18T04:46:23.722Z,77.93
2018-10-18T04:48:51.256Z,80.57
2018-10-18T04:51:18.727Z,84.07
2018-10-18T04:53:46.214Z,86.17
2018-10-18T04:56:13.718Z,80.87
2018-10-18T04:58:41.215Z,85.27
2018-10-18T05:01:08.818Z,80.27
2018-10-18T05:03:36.218Z,82.33
2018-10-18T05:06:04.719Z,77.87
2018-10-18T05:08:32.237Z,78.17
2018-10-18T05:10:59.742Z,80.43
2018-10-18T05:13:27.246Z,79.70
2018-10-18T05:15:54.739Z,79.07
2018-10-18T05:18:22.574Z,78.87
2018-10-18T05:20:50.066Z,80.20
2018-10-18T05:23:17.575Z,83.80
2018-10-18T05:25:45.811Z,88.43
2018-10-18T05:28:13.326Z,85.80
2018-10-18T05:30:40.815Z,86.10
2018-10-18T05:33:08.328Z,84.20
2018-10-18T05:35:35.840Z,87.10
2018-10-18T05:38:03.429Z,85.43
2018-10-18T05:40:30.930Z,79.00
2018-10-18T05:43:03.969Z,79.53
2018-10-18T05:45:31.500Z,74.73
2018-10-18T05:47:59.027Z,72.60
2018-10-18T05:50:26.559Z,73.50
2018-10-18T05:52:54.074Z,73.20
2018-10-18T05:55:21.585Z,71.20
2018-10-18T05:57:49.078Z,80.60
2018-10-18T06:00:17.670Z,74.63
2018-10-18T06:02:45.433Z,79.90
2018-10-18T06:05:14.956Z,78.83
2018-10-18T06:07:43.123Z,81.53
2018-10-18T06:10:28.296Z,83.87
2018-10-18T06:12:55.870Z,86.17
2018-10-18T06:15:23.648Z,87.87
2018-10-18T06:17:51.382Z,90.30
2018-10-18T06:20:19.759Z,92.20
2018-10-18T06:22:47.293Z,88.93
2018-10-18T06:25:15.464Z,89.90
2018-10-18T06:27:42.928Z,85.57
2018-10-18T06:30:12.983Z,89.63
2018-10-18T06:36:01.415Z,81.93
2018-10-18T06:38:28.943Z,79.37
2018-10-18T06:40:56.471Z,82.57
2018-10-18T06:43:24.047Z,82.70
2018-10-18T06:45:51.563Z,82.23
2018-10-18T06:48:19.079Z,89.03
2018-10-18T06:50:46.607Z,86.97
2018-10-18T06:53:14.121Z,88.87
2018-10-18T06:55:41.754Z,84.30
2018-10-18T06:58:10.051Z,87.57
2018-10-18T07:00:41.166Z,86.67
2018-10-18T07:03:08.683Z,87.83
2018-10-18T07:05:42.310Z,86.93
2018-10-18T07:08:09.815Z,88.33
2018-10-18T07:10:54.431Z,86.67
2018-10-18T07:13:21.942Z,89.73
2018-10-18T07:15:49.467Z,88.57
2018-10-18T07:18:17.124Z,91.13
2018-10-18T07:20:44.495Z,85.90
2018-10-18T07:23:12.007Z,82.57
2018-10-18T07:25:46.287Z,77.67
2018-10-18T07:28:13.806Z,80.87
2018-10-18T07:30:41.314Z,72.97
2018-10-18T07:33:08.822Z,66.70
2018-10-18T07:35:36.351Z,62.60
2018-10-18T07:38:03.886Z,62.33
2018-10-18T07:40:31.407Z,61.53
2018-10-18T07:42:58.927Z,58.30
2018-10-18T07:45:26.426Z,56.23
2018-10-18T07:47:53.933Z,53.93
2018-10-18T07:50:21.459Z,52.67
2018-10-18T07:52:48.965Z,50.10
2018-10-18T07:55:16.462Z,51.03
2018-10-18T07:57:43.946Z,56.07
2018-10-18T08:00:12.910Z,49.43
2018-10-18T08:02:41.056Z,50.13
2018-10-18T08:05:09.241Z,48.73
2018-10-18T08:07:37.009Z,48.47
2018-10-18T08:10:07.469Z,46.13
2018-10-18T08:12:34.987Z,46.17
2018-10-18T08:15:02.482Z,45.20
2018-10-18T08:17:29.994Z,43.97
2018-10-18T08:19:57.487Z,47.10
2018-10-18T08:22:25.002Z,46.83
2018-10-18T08:24:52.500Z,46.60
2018-10-18T08:27:19.995Z,47.67
2018-10-18T08:29:47.495Z,50.43
2018-10-18T08:32:15.047Z,50.83
2018-10-18T08:34:42.545Z,52.10
2018-10-18T08:37:10.130Z,55.23
2018-10-18T08:39:37.574Z,51.90
2018-10-18T08:42:05.342Z,53.50
2018-10-18T08:44:32.923Z,55.67
2018-10-18T08:47:00.379Z,54.67
2018-10-18T08:49:27.871Z,54.53
2018-10-18T08:51:55.370Z,56.37
2018-10-18T08:54:22.886Z,54.47
2018-10-18T08:56:50.383Z,56.33
2018-10-18T08:59:17.908Z,56.07
2018-10-18T09:01:45.596Z,56.83
2018-10-18T09:04:12.917Z,55.83
2018-10-18T09:06:40.405Z,57.83
2018-10-18T09:09:08.486Z,57.73
2018-10-18T09:11:36.120Z,59.73
2018-10-18T09:14:03.786Z,59.07
2018-10-18T09:16:31.454Z,59.33
2018-10-18T09:18:58.958Z,61.75
2018-10-18T09:21:26.452Z,62.25
2018-10-18T09:23:54.006Z,62.83
2018-10-18T09:26:21.446Z,62.50
2018-10-18T09:28:48.958Z,62.10
2018-10-18T09:31:16.518Z,60.92
2018-10-18T09:33:43.950Z,64.50
2018-10-18T09:36:11.479Z,60.50
2018-10-18T09:38:38.966Z,62.62
2018-10-18T09:41:06.475Z,61.40
2018-10-18T09:43:33.986Z,62.98
2018-10-18T09:46:01.494Z,61.20
2018-10-18T09:48:28.986Z,61.13
2018-10-18T09:50:56.745Z,59.42
2018-10-18T09:53:24.018Z,63.05
2018-10-18T09:55:51.538Z,61.73
2018-10-18T09:58:19.025Z,59.48
2018-10-18T10:00:52.284Z,57.93
2018-10-18T10:03:20.320Z,57.40
2018-10-18T10:05:47.847Z,58.68
2018-10-18T10:08:15.343Z,60.60
2018-10-18T10:10:42.858Z,58.73
2018-10-18T10:13:10.446Z,58.33
2018-10-18T10:15:37.851Z,59.05
2018-10-18T10:18:05.359Z,59.63
2018-10-18T10:20:32.885Z,58.75
2018-10-18T10:23:00.387Z,60.43
2018-10-18T10:25:27.890Z,65.00
2018-10-18T10:27:56.006Z,64.65
2018-10-18T10:30:23.751Z,63.85
2018-10-18T10:32:51.234Z,63.60
2018-10-18T10:35:18.787Z,63.60
2018-10-18T10:37:46.198Z,60.83
2018-10-18T10:40:13.783Z,64.27
2018-10-18T10:42:41.890Z,61.55
2018-10-18T10:45:10.518Z,63.00
2018-10-18T10:47:37.987Z,65.47
2018-10-18T10:50:06.325Z,64.55
2018-10-18T10:52:33.809Z,61.45
2018-10-18T10:55:01.302Z,62.73
2018-10-18T10:57:29.026Z,61.80
2018-10-18T10:59:56.490Z,61.80
2018-10-18T11:02:24.011Z,60.92
2018-10-18T11:04:51.518Z,57.48
2018-10-18T11:07:19.050Z,54.18
2018-10-18T11:09:46.622Z,55.33
2018-10-18T11:12:14.115Z,54.10
2018-10-18T11:14:41.566Z,56.63
2018-10-18T11:17:09.124Z,57.00
2018-10-18T11:19:36.572Z,58.38
2018-10-18T11:22:05.025Z,56.50
2018-10-18T11:24:32.565Z,55.00
2018-10-18T11:27:00.099Z,56.02
2018-10-18T11:29:27.567Z,55.00
2018-10-18T11:31:55.070Z,56.05
2018-10-18T11:34:22.671Z,55.60
2018-10-18T11:36:50.138Z,54.53
2018-10-18T11:39:17.630Z,52.73
2018-10-18T11:41:45.140Z,51.42
2018-10-18T11:44:12.741Z,56.92
2018-10-18T11:46:40.260Z,54.83
2018-10-18T11:49:07.805Z,54.55
2018-10-18T11:51:35.389Z,57.80
2018-10-18T11:54:02.971Z,54.73
2018-10-18T11:56:30.521Z,57.03
2018-10-18T11:58:58.056Z,53.83
2018-10-18T12:01:25.791Z,53.75
2018-10-18T12:03:53.339Z,57.53
2018-10-18T12:06:20.892Z,52.15
2018-10-18T12:08:48.439Z,50.38
2018-10-18T12:11:16.210Z,52.20
2018-10-18T12:13:43.603Z,50.28
2018-10-18T12:16:11.143Z,54.40
2018-10-18T12:18:38.692Z,53.75
2018-10-18T12:21:06.236Z,55.83
2018-10-18T12:23:33.803Z,55.52
2018-10-18T12:26:01.393Z,57.48
2018-10-18T12:28:28.936Z,57.43
2018-10-18T12:30:56.504Z,60.33
2018-10-18T12:33:24.064Z,59.75
2018-10-18T12:35:51.600Z,58.25
2018-10-18T12:38:19.144Z,58.33
2018-10-18T12:40:46.733Z,61.83
2018-10-18T12:43:14.243Z,61.15
2018-10-18T12:45:41.751Z,63.23
2018-10-18T12:48:09.490Z,63.90
2018-10-18T12:50:36.914Z,61.25
2018-10-18T12:53:04.437Z,57.58
2018-10-18T12:55:31.956Z,55.92
2018-10-18T12:57:59.474Z,59.48
2018-10-18T13:00:26.987Z,60.12
2018-10-18T13:02:54.488Z,60.35
2018-10-18T13:05:21.997Z,58.50
2018-10-18T13:07:49.509Z,60.80
2018-10-18T13:10:17.032Z,62.15
2018-10-18T13:12:44.556Z,60.48
2018-10-18T13:15:12.069Z,61.65
2018-10-18T13:17:39.809Z,59.85
2018-10-18T13:20:08.581Z,62.73
2018-10-18T13:22:36.255Z,62.90
2018-10-18T13:25:04.860Z,61.33
2018-10-18T13:27:32.380Z,64.15
2018-10-18T13:29:59.909Z,62.23
2018-10-18T13:32:27.565Z,62.33
2018-10-18T13:34:55.125Z,66.90
2018-10-18T13:37:22.643Z,65.75
2018-10-18T13:39:50.147Z,68.40
2018-10-18T13:42:17.699Z,65.12
2018-10-18T13:44:45.196Z,65.47
2018-10-18T13:47:12.712Z,65.55
2018-10-18T13:49:40.225Z,61.45
2018-10-18T13:52:07.722Z,64.30
2018-10-18T13:54:35.253Z,64.10
2018-10-18T13:57:02.815Z,62.13
2018-10-18T13:59:47.974Z,62.55
2018-10-18T14:02:15.532Z,62.65
2018-10-18T14:04:42.999Z,64.15
2018-10-18T14:07:10.755Z,63.58
2018-10-18T14:09:38.276Z,64.80
2018-10-18T14:12:05.809Z,63.68
2018-10-18T14:14:33.323Z,65.25
2018-10-18T14:17:00.894Z,65.10
2018-10-18T14:19:28.380Z,65.37
2018-10-18T14:21:56.959Z,65.00
2018-10-18T14:24:24.480Z,64.77
2018-10-18T14:26:51.989Z,65.90
2018-10-18T14:29:19.587Z,65.00
2018-10-18T14:31:47.677Z,64.25
2018-10-18T14:34:15.199Z,64.37
2018-10-18T14:36:42.708Z,64.25
2018-10-18T14:39:10.332Z,62.60
2018-10-18T14:41:38.092Z,63.00
2018-10-18T14:44:05.819Z,63.15
2018-10-18T14:46:33.406Z,63.60
2018-10-18T14:49:00.980Z,63.45
2018-10-18T14:51:28.649Z,65.30
2018-10-18T14:53:56.196Z,62.80
2018-10-18T14:56:24.008Z,64.87
2018-10-18T14:58:51.596Z,64.77
2018-10-18T15:01:22.665Z,64.62
2018-10-18T15:03:57.888Z,66.33
2018-10-18T15:06:50.060Z,61.70
2018-10-18T15:09:25.689Z,65.28
2018-10-18T15:12:14.476Z,62.40
2018-10-18T15:14:42.044Z,64.30
2018-10-18T15:17:09.679Z,63.20
2018-10-18T15:22:41.807Z,62.85
2018-10-18T15:25:10.467Z,61.28
2018-10-18T15:27:38.474Z,62.58
2018-10-18T15:30:07.504Z,61.40
2018-10-18T15:32:35.228Z,64.42
2018-10-18T15:35:02.797Z,69.95
2018-10-18T15:37:30.326Z,72.45
2018-10-18T15:39:57.913Z,66.87
2018-10-18T15:42:25.467Z,72.05
2018-10-18T15:44:53.003Z,68.90
2018-10-18T15:47:20.626Z,71.22
2018-10-18T15:49:48.032Z,69.47
2018-10-18T15:52:15.556Z,70.13
2018-10-18T15:54:43.123Z,68.53
2018-10-18T15:57:10.682Z,72.20
2018-10-18T15:59:38.132Z,69.47
2018-10-18T16:02:05.726Z,71.87
2018-10-18T16:04:33.247Z,71.33
2018-10-18T16:07:00.748Z,72.50
2018-10-18T16:09:28.277Z,74.10
2018-10-18T16:11:55.781Z,70.17
2018-10-18T16:14:23.319Z,70.60
2018-10-18T16:16:50.820Z,70.90
2018-10-18T16:19:18.328Z,69.73
2018-10-18T16:21:45.836Z,67.47
2018-10-18T16:24:13.418Z,71.77
2018-10-18T16:26:40.874Z,69.00
2018-10-18T16:29:08.454Z,71.33
2018-10-18T16:31:35.899Z,68.20
2018-10-18T16:34:03.819Z,68.53
2018-10-18T16:36:31.327Z,70.17
2018-10-18T16:38:58.835Z,67.43
2018-10-18T16:41:26.667Z,69.50
2018-10-18T16:43:53.989Z,69.63
2018-10-18T16:46:21.491Z,69.47
2018-10-18T16:48:48.996Z,70.73
2018-10-18T16:51:16.540Z,68.83
2018-10-18T16:53:44.068Z,69.07
2018-10-18T16:56:11.602Z,67.67
2018-10-18T16:58:39.092Z,66.47
2018-10-18T17:01:06.649Z,67.50
2018-10-18T17:03:34.160Z,64.23
2018-10-18T17:06:01.784Z,66.40
2018-10-18T17:08:29.207Z,65.47
2018-10-18T17:10:56.777Z,64.37
2018-10-18T17:13:24.284Z,66.13
2018-10-18T17:15:51.863Z,62.77
2018-10-18T17:18:19.412Z,65.13
2018-10-18T17:20:47.116Z,64.27
2018-10-18T17:23:14.481Z,63.87
2018-10-18T17:25:41.995Z,62.10
2018-10-18T17:28:09.501Z,60.33
2018-10-18T17:30:37.094Z,59.83
2018-10-18T17:33:04.667Z,64.43
2018-10-18T17:35:32.172Z,61.30
2018-10-18T17:37:59.674Z,62.53
2018-10-18T17:40:27.258Z,61.13
2018-10-18T17:42:54.779Z,62.90
2018-10-18T17:45:22.286Z,60.93
2018-10-18T17:47:49.809Z,61.73
2018-10-18T17:50:17.431Z,62.23
2018-10-18T17:52:59.023Z,60.13
2018-10-18T17:55:26.537Z,57.73
2018-10-18T17:57:54.080Z,58.93
2018-10-18T18:00:21.611Z,59.30
2018-10-18T18:02:59.924Z,57.47
2018-10-18T18:05:27.464Z,58.27
2018-10-18T18:07:55.056Z,57.43
2018-10-18T18:10:26.048Z,58.37
2018-10-18T18:12:53.559Z,56.97
2018-10-18T18:15:21.089Z,58.80
2018-10-18T18:17:48.673Z,58.33
2018-10-18T18:20:16.180Z,58.90
2018-10-18T18:22:43.731Z,56.80
2018-10-18T18:25:11.885Z,56.40
2018-10-18T18:27:39.521Z,56.40
2018-10-18T18:30:10.756Z,56.37
2018-10-18T18:32:46.623Z,55.97
2018-10-18T18:35:14.143Z,57.20
2018-10-18T18:37:41.647Z,56.30
2018-10-18T18:40:09.711Z,56.60
2018-10-18T18:42:37.895Z,55.10
2018-10-18T18:45:11.234Z,57.77
2018-10-18T18:47:38.667Z,56.10
2018-10-18T18:50:06.513Z,55.20
2018-10-18T18:52:34.008Z,55.83
2018-10-18T18:55:01.533Z,57.30
2018-10-18T18:57:29.043Z,55.27
2018-10-18T18:59:56.540Z,55.97
2018-10-18T19:02:24.040Z,52.17
2018-10-18T19:04:51.557Z,55.10
2018-10-18T19:07:19.067Z,55.43
2018-10-18T19:09:46.572Z,54.00
2018-10-18T19:12:14.085Z,52.13
2018-10-18T19:14:41.600Z,55.20
2018-10-18T19:17:09.112Z,54.80
2018-10-18T19:19:37.328Z,53.90
2018-10-18T19:22:05.568Z,52.60
2018-10-18T19:24:33.060Z,54.70
2018-10-18T19:27:00.596Z,54.10
2018-10-18T19:29:28.095Z,54.90
2018-10-18T19:31:55.651Z,54.17
2018-10-18T19:34:23.116Z,52.43
2018-10-18T19:36:50.620Z,55.03
2018-10-18T19:39:18.120Z,51.90
2018-10-18T19:41:45.636Z,50.53
2018-10-18T19:44:13.240Z,53.17
2018-10-18T19:46:40.705Z,51.40
2018-10-18T19:49:08.188Z,52.53
2018-10-18T19:51:35.708Z,52.87
2018-10-18T19:54:03.228Z,53.70
2018-10-18T19:56:30.732Z,52.53
2018-10-18T19:58:58.243Z,51.97
2018-10-18T20:01:25.783Z,52.93
2018-10-18T20:03:53.316Z,54.03
2018-10-18T20:06:21.068Z,52.87
2018-10-18T20:08:48.581Z,53.47
2018-10-18T20:11:16.107Z,51.23
2018-10-18T20:13:43.607Z,52.80
2018-10-18T20:16:11.128Z,52.33
2018-10-18T20:18:38.680Z,52.20
2018-10-18T20:21:06.350Z,51.37
2018-10-18T20:23:33.848Z,54.10
2018-10-18T20:26:02.723Z,51.57
2018-10-18T20:28:36.630Z,53.97
2018-10-18T20:31:04.487Z,53.00
2018-10-18T20:33:32.001Z,53.67
2018-10-18T20:35:59.563Z,53.57
2018-10-18T20:38:27.033Z,54.17
2018-10-18T20:40:54.588Z,52.57
2018-10-18T20:43:24.252Z,55.23
2018-10-18T20:45:51.855Z,51.17
2018-10-18T20:48:19.368Z,54.03
2018-10-18T20:50:46.921Z,53.07
2018-10-18T20:53:14.526Z,53.93
2018-10-18T20:55:42.031Z,54.63
2018-10-18T20:58:09.581Z,54.83
2018-10-18T21:00:37.151Z,55.97
2018-10-18T21:03:04.984Z,55.47
2018-10-18T21:05:32.534Z,55.97
2018-10-18T21:08:00.067Z,53.93
2018-10-18T21:10:28.625Z,54.07
2018-10-18T21:12:56.187Z,52.47
2018-10-18T21:15:34.173Z,52.47
2018-10-18T21:18:01.773Z,51.80
2018-10-18T21:20:29.304Z,52.83
2018-10-18T21:22:56.877Z,54.07
2018-10-18T21:25:24.409Z,52.90
2018-10-18T21:27:52.046Z,52.13
2018-10-18T21:30:19.535Z,52.50
2018-10-18T21:32:47.106Z,51.00
2018-10-18T21:35:14.735Z,51.60
2018-10-18T21:37:42.236Z,50.87
2018-10-18T21:40:09.777Z,51.07
2018-10-18T21:42:37.354Z,51.20
2018-10-18T21:45:04.906Z,51.43
2018-10-18T21:47:32.516Z,51.40
2018-10-18T21:50:00.017Z,52.67
2018-10-18T21:52:27.533Z,50.17
2018-10-18T21:54:55.035Z,50.07
2018-10-18T21:57:23.596Z,52.20
2018-10-18T21:59:51.088Z,51.37
2018-10-18T22:02:18.624Z,51.10
2018-10-18T22:04:46.139Z,51.00
2018-10-18T22:07:13.646Z,49.37
2018-10-18T22:10:06.961Z,49.90
2018-10-18T22:12:34.651Z,49.47
2018-10-18T22:15:02.177Z,52.77
2018-10-18T22:17:29.683Z,50.47
2018-10-18T22:19:57.188Z,51.83
2018-10-18T22:22:24.697Z,51.27
2018-10-18T22:24:52.201Z,52.40
2018-10-18T22:27:19.715Z,52.00
2018-10-18T22:29:47.224Z,54.43
2018-10-18T22:32:14.733Z,52.17
2018-10-18T22:34:42.240Z,52.17
2018-10-18T22:37:09.788Z,52.27
2018-10-18T22:39:37.277Z,52.13
2018-10-18T22:42:05.116Z,53.57
2018-10-18T22:44:32.628Z,52.37
2018-10-18T22:47:00.166Z,53.63
2018-10-18T22:49:27.676Z,53.80
2018-10-18T22:51:55.174Z,53.23
2018-10-18T22:54:22.684Z,53.57
2018-10-18T22:56:50.205Z,54.20
2018-10-18T22:59:17.712Z,53.17
2018-10-18T23:01:45.356Z,52.87
2018-10-18T23:04:12.859Z,52.03
2018-10-18T23:06:40.371Z,53.23
2018-10-18T23:09:09.540Z,52.13
2018-10-18T23:11:37.120Z,54.00
2018-10-18T23:14:05.516Z,52.50
2018-10-18T23:16:33.048Z,50.30
2018-10-18T23:19:00.543Z,49.83
2018-10-18T23:21:28.057Z,51.20
2018-10-18T23:23:55.568Z,51.13
2018-10-18T23:26:23.140Z,50.83
2018-10-18T23:28:50.648Z,51.77
2018-10-18T23:31:18.152Z,47.27
2018-10-18T23:33:45.659Z,47.47
2018-10-18T23:36:13.173Z,46.47
2018-10-18T23:38:40.691Z,48.13
2018-10-18T23:41:08.207Z,49.53
2018-10-18T23:43:35.730Z,49.00
2018-10-18T23:46:03.298Z,47.37
2018-10-18T23:48:30.856Z,45.77
2018-10-18T23:50:58.395Z,48.13
2018-10-18T23:53:25.981Z,44.00
2018-10-18T23:55:53.562Z,44.40
2018-10-18T23:58:21.096Z,43.57
